Wenatchee, WA

6:04 PM PDT on October 24, 2014 (GMT -0700)
Stampede Pass | Change Station
CLOSE
Current Station
Airport
Location: Stampede Pass,
Elevation: 3967 ft
Nearby Weather Stations

Elev 3967 ft 47.28 °N, 121.34 °W | Updated 5 days ago

Overcast
Overcast
53 °F
Feels Like 53 °F
N
4
Wind Variable Wind from East
Gusts 5 mph

Today
High -- | Low -- °F
--% Chance of Precip.
Yesterday
High -- | Low -- °F
Precip. -- in
7:33 AM 5:57 PM
New Moon, 1% visible
Pressure 29.83 in
Visibility 8.0 miles
Clouds Scattered Clouds 400 ft
Dew Point 45 °F
Humidity 71%
Rainfall 0.00 in
Snow Depth 0 in , 0 in , 0 in
UV 3 out of 12
Pollen 1.40 out of 12
Air Quality Not available.
Flu Activity Sporadic
METAR KSMP 191956Z AUTO VRB04KT 8SM SCT004 12/09 A2986 RMK AO2 SLP101 T01220094 $

More Conditions Fewer Conditions

Pressure 29.83 in
Visibility 8.0 miles
Clouds Scattered Clouds 400 ft
Dew Point 45 °F
Humidity 71%
Rainfall 0.00 in
Snow Depth 0 in , 0 in , 0 in
UV 3 out of 12
Pollen 1.40 out of 12
Air Quality Not available.
Flu Activity Sporadic
METAR KSMP 191956Z AUTO VRB04KT 8SM SCT004 12/09 A2986 RMK AO2 SLP101 T01220094 $

More Conditions Fewer Conditions

10-Day Weather Forecast

Almanac

Astronomy

Oct. 24, 2014 Rise Set
Actual Time 7:33 AM PDT 5:57 PM PDT
Civil Twilight 7:01 AM PDT 6:28 PM PDT
Nautical Twilight 6:25 AM PDT 7:04 PM PDT
Astronomical Twilight 5:50 AM PDT 7:39 PM PDT
Moon 8:19 AM PDT (10/24) 6:36 PM PDT (10/24)
Length of Visible Light 11h 26m
Length of Day
10h 23m
Tomorrow will be 3m 11s shorter.
New Moon, 1% of the Moon is Illuminated
Today
New Moon
Oct 30
First Quarter
Nov 6
Full
Nov 14
Last Quarter
Nov 22
New

Today's Extremes

State Highs State Lows

Community

WunderPhotos

Upload Photos

1,764,737 photos uploaded!

WunderBlogs® & News

Nearby

Snow Depth

Station Depth Elevation
Grouse Camp 0 in 5380 ft
Trough 0 in 5300 ft
Blewett Pass 0 in 4270 ft
Pope Ridge 0 in 3540 ft
Stevens Pass 0 in 4070 ft

Earthquake Activity

City Distance Mag. Time & Date
No recent earthquake activity has been reported nearby.
Minimum magnitude displayed is 2.5.

Coastal Water Temperatures

Place Temperature
No Stations Reporting

Nearby Weather Stations